Time;durP1;ratioP1;P1;durP2;ratioP2;P2;SDS_P1;SDS_P2;PMS_P1;PMS_P2;Temp;Humidity;BMP_temperature;BMP_pressure;BME280_temperature;BME280_humidity;BME280_pressure;Samples;Min_cycle;Max_cycle;Signal;HPM_P1;HPM_P2
2022/05/01 00:02:00;;;;;;;44.40;23.27;;;;;;;8.13;73.37;100788.11;1455638;88;21544;-86
2022/05/01 00:04:26;;;;;;;44.40;24.50;;;;;;;8.11;73.64;100792.70;1464153;88;21768;-85
2022/05/01 00:06:52;;;;;;;43.33;25.07;;;;;;;8.11;72.98;100793.15;1431607;90;21547;-85
2022/05/01 00:09:18;;;;;;;42.93;25.57;;;;;;;8.09;73.24;100799.87;1447766;88;21574;-85
2022/05/01 00:11:44;;;;;;;49.53;26.27;;;;;;;8.05;73.34;100794.96;1436943;89;21489;-84
2022/05/01 00:14:11;;;;;;;41.17;25.77;;;;;;;8.02;73.68;100796.04;1444097;88;21510;-85
2022/05/01 00:16:37;;;;;;;43.43;24.87;;;;;;;7.99;73.95;100792.33;1471989;88;21540;-85
2022/05/01 00:19:03;;;;;;;38.67;22.53;;;;;;;7.96;73.81;100791.26;1472901;88;22353;-85
2022/05/01 00:21:29;;;;;;;44.57;23.93;;;;;;;7.95;73.90;100794.03;1467954;87;21574;-84
2022/05/01 00:23:55;;;;;;;45.10;24.87;;;;;;;7.92;74.12;100795.11;1465232;86;21480;-84
2022/05/01 00:26:21;;;;;;;40.13;25.90;;;;;;;7.91;74.13;100794.73;1461807;88;21538;-84
2022/05/01 00:28:47;;;;;;;37.37;23.87;;;;;;;7.88;74.44;100802.88;1459902;87;22499;-86
2022/05/01 00:31:16;;;;;;;44.03;24.83;;;;;;;7.81;74.78;100791.16;1470354;88;21552;-86
2022/05/01 00:36:26;;;;;;;43.50;25.03;;;;;;;7.61;75.18;100782.19;1432920;89;22674;-86
2022/05/01 00:38:57;;;;;;;36.03;23.10;;;;;;;7.58;76.37;100781.95;1462198;86;21478;-86
2022/05/01 00:41:26;;;;;;;44.20;26.00;;;;;;;7.58;76.14;100792.96;1430952;90;21519;-88
2022/05/01 00:44:00;;;;;;;38.63;24.30;;;;;;;7.54;77.29;100792.38;1442508;88;21582;-86
2022/05/01 00:46:28;;;;;;;40.17;24.43;;;;;;;7.48;77.42;100796.80;1470407;87;21533;-86
2022/05/01 00:48:54;;;;;;;44.23;24.47;;;;;;;7.47;76.83;100799.05;1467949;87;21637;-84
2022/05/01 00:51:21;;;;;;;42.13;22.13;;;;;;;7.46;76.48;100793.44;1415268;90;21482;-84
2022/05/01 00:53:50;;;;;;;36.20;24.10;;;;;;;7.44;76.46;100793.55;1435168;90;21510;-84
2022/05/01 00:56:17;;;;;;;45.30;24.87;;;;;;;7.39;76.45;100792.45;1451187;88;21539;-85
2022/05/01 00:58:45;;;;;;;43.13;24.63;;;;;;;7.30;77.60;100792.45;1445080;88;21756;-84
2022/05/01 01:01:12;;;;;;;39.73;25.03;;;;;;;7.28;77.81;100800.09;1470289;88;23026;-85
2022/05/01 01:03:40;;;;;;;38.40;24.20;;;;;;;7.23;76.85;100798.67;1467539;88;21529;-85
2022/05/01 01:06:06;;;;;;;47.97;27.03;;;;;;;7.20;77.27;100793.64;1474028;87;22314;-85
2022/05/01 01:08:33;;;;;;;40.73;24.30;;;;;;;7.17;77.54;100789.92;1470151;87;22684;-85
2022/05/01 01:10:59;;;;;;;38.43;25.80;;;;;;;7.17;77.54;100789.92;1464394;88;22544;-85
2022/05/01 01:13:27;;;;;;;50.47;26.43;;;;;;;7.21;77.30;100795.30;1466024;88;22161;-84
2022/05/01 01:15:54;;;;;;;39.83;26.30;;;;;;;7.20;78.17;100797.59;1473504;88;23084;-84
2022/05/01 01:18:22;;;;;;;43.30;24.17;;;;;;;7.17;78.00;100793.88;1446826;88;22161;-85
2022/05/01 01:20:48;;;;;;;45.23;26.90;;;;;;;7.13;77.72;100794.21;1451876;87;23187;-85
2022/05/01 01:23:14;;;;;;;42.23;26.67;;;;;;;6.99;77.59;100788.67;1463689;87;22256;-86
2022/05/01 01:25:41;;;;;;;40.27;26.30;;;;;;;6.99;77.59;100788.67;1440454;88;21496;-84
2022/05/01 01:28:08;;;;;;;38.70;24.20;;;;;;;6.97;77.99;100799.33;1471900;87;23543;-84
2022/05/01 01:33:21;;;;;;;35.63;21.90;;;;;;;6.93;78.39;100798.34;1466977;88;22394;-85
2022/05/01 01:35:50;;;;;;;40.00;21.73;;;;;;;6.93;78.16;100799.66;1461229;88;23180;-86
2022/05/01 01:38:17;;;;;;;35.57;21.00;;;;;;;6.88;78.41;100798.70;1465366;87;22254;-85
2022/05/01 01:40:48;;;;;;;36.97;20.97;;;;;;;6.82;78.60;100805.75;1442928;88;22162;-85
2022/05/01 01:43:21;;;;;;;28.67;18.20;;;;;;;6.73;79.10;100800.70;1466568;87;22230;-85
2022/05/01 01:45:47;;;;;;;33.27;19.53;;;;;;;6.67;78.29;100802.44;1471074;88;22194;-84
2022/05/01 01:48:19;;;;;;;32.53;21.90;;;;;;;6.59;79.13;100799.56;1474056;88;22116;-84
2022/05/01 01:50:59;;;;;;;34.40;19.30;;;;;;;6.51;79.76;100804.05;1461832;88;22476;-85
2022/05/01 01:53:26;;;;;;;29.23;18.73;;;;;;;6.45;79.89;100802.36;1453042;87;22264;-85
2022/05/01 01:55:53;;;;;;;32.30;19.53;;;;;;;6.39;80.18;100798.38;1443773;88;22303;-85
2022/05/01 01:58:20;;;;;;;30.40;18.23;;;;;;;6.37;80.28;100797.65;1467172;87;22169;-85
2022/05/01 02:00:46;;;;;;;24.07;15.57;;;;;;;6.37;80.12;100798.12;1458840;87;23273;-83
2022/05/01 02:03:13;;;;;;;31.03;17.63;;;;;;;6.36;79.22;100803.00;1470312;87;22191;-84
2022/05/01 02:05:39;;;;;;;33.93;18.50;;;;;;;6.32;79.89;100795.34;1477290;87;22245;-84
2022/05/01 02:08:06;;;;;;;34.43;18.20;;;;;;;6.23;79.81;100789.44;1429374;88;22277;-85
2022/05/01 02:10:33;;;;;;;27.37;18.47;;;;;;;6.13;79.49;100798.95;1459178;87;22162;-85
2022/05/01 02:13:02;;;;;;;31.63;19.00;;;;;;;6.13;79.49;100819.98;1451936;88;22439;-85
2022/05/01 02:15:33;;;;;;;29.60;17.90;;;;;;;5.93;78.90;100790.27;1449563;88;22274;-85
2022/05/01 02:18:00;;;;;;;36.90;20.92;;;;;;;5.93;78.90;100790.27;1426761;90;21923;-85
2022/05/01 02:21:33;;;;;;;26.10;18.37;;;;;;;5.92;79.87;100802.58;1456618;87;21622;-87
2022/05/01 02:22:56;;;;;;;23.07;16.82;;;;;;;5.90;80.12;100799.24;1457250;88;21956;-86
2022/05/01 02:25:23;;;;;;;29.83;16.87;;;;;;;5.87;80.81;100799.46;1460216;88;21523;-86
2022/05/01 02:27:50;;;;;;;27.90;18.20;;;;;;;5.86;81.28;100801.22;1478366;88;22136;-88
2022/05/01 02:30:17;;;;;;;30.23;17.33;;;;;;;5.83;80.56;100797.50;1465011;86;23122;-87
2022/05/01 02:32:43;;;;;;;26.43;16.03;;;;;;;5.88;80.71;100800.65;1446670;88;22073;-85
2022/05/01 02:35:10;;;;;;;27.70;18.70;;;;;;;5.84;80.49;100795.26;1449074;87;22217;-84
2022/05/01 02:37:36;;;;;;;28.63;17.80;;;;;;;5.84;80.49;100795.26;1461330;87;22053;-84
2022/05/01 02:40:04;;;;;;;27.73;19.23;;;;;;;5.77;80.71;100792.68;1452829;87;21881;-86
2022/05/01 02:42:30;;;;;;;29.80;18.87;;;;;;;5.76;80.10;100796.27;1459465;87;23383;-87
2022/05/01 02:44:59;;;;;;;37.53;20.67;;;;;;;5.74;80.78;100802.09;1451653;88;21938;-86
2022/05/01 02:47:25;;;;;;;26.20;17.87;;;;;;;5.71;81.40;100800.16;1438824;87;22527;-85
2022/05/01 02:49:51;;;;;;;24.87;16.27;;;;;;;5.66;81.07;100799.16;1483347;87;21909;-84
2022/05/01 02:52:17;;;;;;;25.87;18.37;;;;;;;5.62;80.86;100796.39;1456290;87;22031;-86
2022/05/01 02:54:43;;;;;;;32.23;17.47;;;;;;;5.58;80.70;100794.91;1430312;90;22592;-83
2022/05/01 02:57:10;;;;;;;35.70;17.90;;;;;;;5.59;80.44;100800.06;1442430;87;22050;-86
2022/05/01 02:59:36;;;;;;;30.73;18.40;;;;;;;5.58;81.27;100802.78;1467362;87;22075;-89
2022/05/01 03:02:02;;;;;;;34.23;18.87;;;;;;;5.56;81.54;100807.89;1473430;87;21920;-86
2022/05/01 03:04:29;;;;;;;30.17;17.37;;;;;;;5.54;80.83;100807.89;1474121;87;22528;-85
2022/05/01 03:06:56;;;;;;;28.03;18.53;;;;;;;5.53;82.00;100811.48;1469999;87;21978;-85
2022/05/01 03:09:23;;;;;;;27.20;17.37;;;;;;;5.53;80.79;100812.78;1444902;88;22003;-85
2022/05/01 03:11:49;;;;;;;27.83;17.60;;;;;;;5.48;81.75;100802.59;1466426;88;21948;-85
2022/05/01 03:14:16;;;;;;;27.80;16.97;;;;;;;5.48;81.75;100802.59;1454124;88;22019;-84
2022/05/01 03:16:42;;;;;;;26.73;16.43;;;;;;;5.50;82.18;100803.33;1479455;87;21946;-85
2022/05/01 03:22:13;;;;;;;32.50;18.80;;;;;;;5.50;81.95;100799.87;1441590;86;23082;-88
2022/05/01 03:24:41;;;;;;;28.13;17.27;;;;;;;5.50;82.10;100803.81;1449480;86;21903;-89
2022/05/01 03:27:10;;;;;;;63.10;19.87;;;;;;;5.47;81.86;100806.62;1476149;86;21977;-88
2022/05/01 03:29:38;;;;;;;29.97;18.27;;;;;;;5.47;81.25;100811.87;1459660;88;23754;-88
2022/05/01 03:32:07;;;;;;;32.43;19.07;;;;;;;5.48;80.99;100809.63;1458548;87;22124;-87
2022/05/01 03:34:39;;;;;;;25.60;17.97;;;;;;;5.47;80.73;100818.43;1459283;88;21948;-89
2022/05/01 03:37:09;;;;;;;28.00;17.53;;;;;;;5.49;81.18;100813.45;1446793;89;21792;-89
2022/05/01 03:39:35;;;;;;;24.20;16.30;;;;;;;5.49;81.18;100813.45;1465797;88;22399;-89
2022/05/01 03:42:04;;;;;;;31.03;16.00;;;;;;;5.45;81.70;100814.62;1440612;88;22848;-84
2022/05/01 03:44:30;;;;;;;33.10;17.10;;;;;;;5.43;82.21;100817.33;1465208;88;22896;-84
2022/05/01 03:46:56;;;;;;;26.90;16.87;;;;;;;5.45;81.68;100812.47;1462506;88;21978;-83
2022/05/01 03:49:22;;;;;;;31.30;17.80;;;;;;;5.43;81.69;100808.14;1449240;87;22967;-82
2022/05/01 03:51:48;;;;;;;29.80;18.27;;;;;;;5.45;81.72;100812.47;1469953;87;21885;-83
2022/05/01 03:54:15;;;;;;;24.37;16.90;;;;;;;5.47;81.44;100819.75;1465141;87;21958;-84
2022/05/01 03:56:41;;;;;;;27.17;17.73;;;;;;;5.47;82.09;100819.30;1491401;86;22393;-83
2022/05/01 03:59:07;;;;;;;25.57;17.83;;;;;;;5.45;82.08;100816.41;1474567;86;22052;-83
2022/05/01 04:01:33;;;;;;;26.00;15.87;;;;;;;5.55;82.25;100816.13;1459296;87;21970;-84
2022/05/01 04:04:00;;;;;;;28.37;18.37;;;;;;;5.55;82.25;100816.13;1478746;87;23087;-84
2022/05/01 04:06:26;;;;;;;25.17;17.47;;;;;;;5.65;81.60;100823.75;1473567;87;22182;-83
2022/05/01 04:08:52;;;;;;;28.10;16.57;;;;;;;5.80;81.37;100818.73;1469837;87;22297;-84
2022/05/01 04:11:19;;;;;;;21.60;15.67;;;;;;;5.80;81.37;100818.73;1477486;87;21858;-84
2022/05/01 04:13:45;;;;;;;25.33;17.63;;;;;;;5.89;81.12;100827.27;1469512;87;22115;-84
2022/05/01 04:16:11;;;;;;;24.67;17.10;;;;;;;5.96;81.14;100832.99;1439088;88;22098;-85
2022/05/01 04:18:38;;;;;;;31.53;18.17;;;;;;;6.00;80.79;100838.38;1451385;89;22141;-85
2022/05/01 04:21:04;;;;;;;27.73;16.43;;;;;;;5.95;80.09;100821.27;1446370;88;22105;-85
2022/05/01 04:23:32;;;;;;;26.87;17.10;;;;;;;6.01;80.15;100830.02;1470432;86;22229;-85
2022/05/01 04:25:59;;;;;;;21.60;16.17;;;;;;;6.05;80.63;100831.02;1467569;86;22204;-84
2022/05/01 04:28:25;;;;;;;25.87;15.63;;;;;;;6.15;80.26;100827.25;1467073;87;22188;-84
2022/05/01 04:30:51;;;;;;;19.40;13.90;;;;;;;6.28;80.08;100826.75;1430333;89;23241;-84
2022/05/01 04:33:18;;;;;;;25.23;14.67;;;;;;;6.42;79.88;100827.08;1435447;89;22260;-83
2022/05/01 04:35:47;;;;;;;21.43;14.23;;;;;;;6.56;79.64;100830.03;1461408;88;22101;-84
2022/05/01 04:38:19;;;;;;;24.03;14.70;;;;;;;6.69;79.38;100819.44;1441142;90;22210;-84
2022/05/01 04:40:52;;;;;;;21.77;14.07;;;;;;;6.81;78.70;100828.21;1422236;91;23331;-85
2022/05/01 04:43:24;;;;;;;23.90;13.77;;;;;;;6.91;78.66;100823.95;1474038;87;22181;-87
2022/05/01 04:45:54;;;;;;;22.77;13.25;;;;;;;7.02;77.79;100822.69;1464623;87;22218;-87
2022/05/01 04:48:23;;;;;;;24.92;14.10;;;;;;;7.17;77.57;100831.22;1480142;87;21500;-86
2022/05/01 04:50:51;;;;;;;17.23;12.53;;;;;;;7.28;77.23;100831.70;1474368;87;21609;-87
2022/05/01 04:53:20;;;;;;;21.00;13.27;;;;;;;7.38;77.08;100827.42;1461792;88;21533;-86
2022/05/01 04:55:49;;;;;;;21.10;12.30;;;;;;;7.50;76.95;100842.76;1470018;88;22442;-86
2022/05/01 04:58:16;;;;;;;19.10;11.73;;;;;;;7.60;76.93;100837.99;1450210;87;21503;-87
2022/05/01 05:00:44;;;;;;;17.27;12.40;;;;;;;7.75;76.64;100835.12;1474825;86;21588;-87
2022/05/01 05:03:10;;;;;;;17.90;13.13;;;;;;;7.90;76.59;100837.88;1464251;87;21503;-87
2022/05/01 05:05:36;;;;;;;27.67;13.30;;;;;;;8.03;76.31;100839.08;1462319;87;21732;-87
2022/05/01 05:10:50;;;;;;;19.17;12.17;;;;;;;8.30;75.19;100834.72;1450847;88;21725;-86
2022/05/01 05:13:23;;;;;;;19.27;12.53;;;;;;;8.42;74.16;100836.39;1449990;87;21451;-87
2022/05/01 05:15:47;;;;;;;17.95;12.50;;;;;;;8.53;73.41;100837.69;1459700;88;21493;-88
2022/05/01 05:18:14;;;;;;;17.00;11.53;;;;;;;8.65;73.24;100836.33;1450409;89;21494;-88
2022/05/01 05:20:42;;;;;;;17.57;11.23;;;;;;;8.79;73.12;100832.91;1461022;86;21473;-87
2022/05/01 05:23:09;;;;;;;18.67;11.83;;;;;;;8.90;72.58;100837.80;1470107;86;21503;-88
2022/05/01 05:25:35;;;;;;;16.33;11.53;;;;;;;9.06;72.05;100840.00;1450419;87;21496;-89
2022/05/01 05:28:02;;;;;;;16.07;12.70;;;;;;;9.18;71.43;100833.72;1452147;88;21397;-88
2022/05/01 05:30:28;;;;;;;19.67;12.03;;;;;;;9.33;71.61;100832.41;1481531;87;22395;-88
2022/05/01 05:32:54;;;;;;;16.30;12.10;;;;;;;9.43;70.54;100825.86;1459676;88;21496;-88
2022/05/01 05:35:20;;;;;;;13.17;10.63;;;;;;;9.52;69.79;100824.23;1475473;87;21575;-88
2022/05/01 05:37:46;;;;;;;20.50;12.70;;;;;;;9.60;69.09;100827.89;1461443;87;22466;-88
2022/05/01 05:40:12;;;;;;;17.87;11.47;;;;;;;9.76;70.03;100833.20;1438372;90;21525;-88
2022/05/01 05:42:38;;;;;;;17.87;12.27;;;;;;;9.85;69.16;100835.88;1465910;88;21678;-88
2022/05/01 05:45:06;;;;;;;18.47;12.13;;;;;;;10.00;69.22;100830.23;1419596;91;21516;-87
2022/05/01 05:47:32;;;;;;;19.93;12.23;;;;;;;10.18;69.05;100840.50;1488561;87;22544;-88
2022/05/01 05:49:58;;;;;;;16.00;12.00;;;;;;;10.25;64.93;100840.33;1480112;87;21493;-88
2022/05/01 05:52:24;;;;;;;16.10;10.83;;;;;;;10.44;67.61;100842.69;1457486;86;22392;-88
2022/05/01 05:54:50;;;;;;;18.67;11.17;;;;;;;10.63;67.93;100844.05;1453744;87;22338;-88
2022/05/01 05:57:16;;;;;;;20.50;13.43;;;;;;;10.79;65.92;100841.70;1469074;86;22278;-88
2022/05/01 05:59:43;;;;;;;14.33;10.30;;;;;;;10.96;65.06;100834.88;1469578;87;21566;-86
2022/05/01 06:02:09;;;;;;;17.67;12.23;;;;;;;11.10;64.75;100836.73;1456148;88;21445;-89
2022/05/01 06:04:37;;;;;;;18.00;12.07;;;;;;;11.27;65.44;100836.83;1438671;89;21667;-87
2022/05/01 06:07:03;;;;;;;19.10;12.40;;;;;;;11.45;65.26;100831.66;1425968;88;21509;-88
2022/05/01 06:09:29;;;;;;;15.50;11.53;;;;;;;11.61;64.74;100833.69;1466997;86;21467;-89
2022/05/01 06:11:55;;;;;;;20.17;11.57;;;;;;;11.77;64.33;100834.89;1435521;89;21459;-89
2022/05/01 06:14:22;;;;;;;13.57;10.37;;;;;;;11.82;62.28;100835.30;1443675;89;21479;-91
2022/05/01 06:16:48;;;;;;;17.97;11.30;;;;;;;11.91;62.26;100829.14;1449452;89;21509;-91
2022/05/01 06:19:15;;;;;;;38.77;13.27;;;;;;;12.10;63.07;100833.53;1459612;87;21371;-91
2022/05/01 06:21:41;;;;;;;15.50;11.13;;;;;;;12.30;63.24;100826.30;1467007;87;21452;-91
2022/05/01 06:24:08;;;;;;;19.17;11.73;;;;;;;12.48;62.42;100832.45;1470098;88;21500;-90
2022/05/01 06:26:34;;;;;;;19.07;11.90;;;;;;;12.62;61.79;100833.77;1466837;87;22506;-91
2022/05/01 06:29:01;;;;;;;15.30;11.57;;;;;;;12.81;61.97;100829.64;1471061;87;21574;-91
2022/05/01 06:31:28;;;;;;;13.00;10.37;;;;;;;13.01;61.62;100831.64;1463914;88;22550;-89
2022/05/01 06:33:55;;;;;;;13.53;10.97;;;;;;;13.13;58.90;100830.90;1471225;87;21507;-89
2022/05/01 06:36:22;;;;;;;20.23;12.43;;;;;;;13.29;59.86;100829.73;1471510;88;21544;-88
2022/05/01 06:38:48;;;;;;;13.87;10.60;;;;;;;13.46;59.54;100826.66;1453187;88;22634;-89
2022/05/01 06:41:15;;;;;;;18.87;11.83;;;;;;;13.58;58.65;100825.07;1451855;88;21588;-89
2022/05/01 06:43:41;;;;;;;14.93;10.80;;;;;;;13.69;57.39;100828.30;1468952;88;22573;-89
2022/05/01 06:46:07;;;;;;;17.53;11.60;;;;;;;13.87;57.47;100830.90;1453965;88;22048;-87
2022/05/01 06:48:34;;;;;;;16.60;11.13;;;;;;;13.98;57.12;100829.29;1461347;87;21622;-88
2022/05/01 06:51:01;;;;;;;17.17;11.40;;;;;;;14.02;55.47;100828.47;1459541;86;22099;-86
2022/05/01 06:53:27;;;;;;;15.87;11.70;;;;;;;14.18;56.34;100823.21;1464645;88;21472;-83
2022/05/01 06:55:56;;;;;;;17.30;10.30;;;;;;;14.30;56.17;100829.07;1468082;87;21577;-86
2022/05/01 06:58:23;;;;;;;13.93;10.73;;;;;;;14.51;53.64;100826.45;1465556;88;21516;-86
2022/05/01 07:00:51;;;;;;;13.37;10.43;;;;;;;14.63;55.46;100831.83;1473440;88;21736;-87
2022/05/01 07:03:17;;;;;;;16.67;11.37;;;;;;;14.81;53.30;100831.17;1474177;87;21434;-88
2022/05/01 07:05:43;;;;;;;13.73;10.53;;;;;;;14.97;54.94;100829.03;1428426;90;21575;-87
2022/05/01 07:08:09;;;;;;;19.77;10.47;;;;;;;15.06;53.65;100833.86;1447813;90;21552;-88
2022/05/01 07:10:36;;;;;;;18.73;10.83;;;;;;;15.19;54.14;100827.53;1456747;86;22604;-87
2022/05/01 07:13:02;;;;;;;15.70;10.87;;;;;;;15.31;53.53;100830.69;1472619;87;21577;-85
2022/05/01 07:15:31;;;;;;;13.63;8.83;;;;;;;15.49;53.50;100821.97;1483284;86;21551;-87
2022/05/01 07:17:57;;;;;;;22.63;11.33;;;;;;;15.62;51.55;100825.94;1476347;87;21559;-87
2022/05/01 07:20:24;;;;;;;16.43;9.13;;;;;;;15.83;52.82;100830.26;1439083;87;21748;-87
2022/05/01 07:22:50;;;;;;;12.97;9.67;;;;;;;15.98;52.31;100827.70;1403734;91;21478;-86
2022/05/01 07:25:20;;;;;;;13.00;10.30;;;;;;;15.99;50.56;100832.84;1389411;89;21442;-85
2022/05/01 07:27:46;;;;;;;17.45;9.98;;;;;;;16.17;51.51;100824.61;1400401;90;22583;-87
2022/05/01 07:30:13;;;;;;;13.43;9.63;;;;;;;16.20;50.43;100828.27;1426155;89;23353;-86
2022/05/01 07:32:40;;;;;;;13.37;10.73;;;;;;;16.47;50.86;100836.28;1477262;86;22439;-85
2022/05/01 07:35:07;;;;;;;13.97;8.90;;;;;;;16.59;49.55;100828.70;1461938;88;21442;-86
2022/05/01 07:37:41;;;;;;;17.37;10.33;;;;;;;16.85;50.67;100834.23;1456682;87;22437;-88
2022/05/01 07:40:24;;;;;;;13.17;9.27;;;;;;;17.09;50.21;100824.69;1453427;87;22294;-88
2022/05/01 07:42:48;;;;;;;15.35;9.58;;;;;;;17.21;47.42;100825.08;1464928;86;22812;-86
2022/05/01 07:45:14;;;;;;;14.07;8.27;;;;;;;17.47;49.52;100823.33;1442375;88;22682;-85
2022/05/01 07:47:40;;;;;;;13.00;9.10;;;;;;;17.64;45.09;100821.82;1449494;87;21535;-86
2022/05/01 07:50:08;;;;;;;14.30;9.40;;;;;;;17.54;46.06;100820.22;1432366;90;21448;-86
2022/05/01 07:52:35;;;;;;;9.93;7.70;;;;;;;17.47;45.80;100819.31;1463126;87;22310;-86
2022/05/01 07:55:03;;;;;;;13.57;8.50;;;;;;;17.51;43.70;100823.27;1461428;87;21503;-86
2022/05/01 07:57:32;;;;;;;10.87;7.70;;;;;;;17.61;45.51;100814.98;1450182;88;21559;-86
2022/05/01 07:59:58;;;;;;;12.07;7.50;;;;;;;17.62;42.40;100811.28;1431194;90;21701;-85
2022/05/01 08:02:24;;;;;;;11.83;7.87;;;;;;;17.85;45.48;100817.09;1468214;88;21500;-85
2022/05/01 08:04:50;;;;;;;10.20;7.90;;;;;;;18.10;45.29;100814.94;1472511;88;21723;-86
2022/05/01 08:07:20;;;;;;;9.77;7.50;;;;;;;18.36;45.66;100815.77;1447895;86;21488;-87
2022/05/01 08:09:46;;;;;;;19.48;8.58;;;;;;;18.39;43.74;100820.73;1451032;87;21373;-86
2022/05/01 08:12:13;;;;;;;8.07;7.13;;;;;;;18.44;43.25;100815.13;1471544;86;22462;-87
2022/05/01 08:14:41;;;;;;;15.63;7.90;;;;;;;18.59;43.37;100811.05;1474459;87;21428;-86
2022/05/01 08:17:07;;;;;;;8.43;6.57;;;;;;;18.72;41.40;100809.00;1441599;88;21762;-88
2022/05/01 08:22:19;;;;;;;10.23;7.43;;;;;;;19.04;42.38;100800.14;1459443;87;21521;-86
2022/05/01 08:24:45;;;;;;;12.43;7.90;;;;;;;19.30;43.02;100800.33;1453846;88;21644;-87
2022/05/01 08:27:11;;;;;;;12.60;7.40;;;;;;;19.48;42.43;100787.77;1453249;88;22381;-87
2022/05/01 08:29:38;;;;;;;14.05;8.03;;;;;;;19.73;41.48;100795.36;1454670;88;21459;-87
2022/05/01 08:32:06;;;;;;;16.80;8.78;;;;;;;19.91;41.86;100790.79;1446049;88;21489;-86
2022/05/01 08:34:33;;;;;;;8.73;6.30;;;;;;;20.15;41.76;100788.94;1457098;87;22352;-86
2022/05/01 08:36:59;;;;;;;12.73;6.80;;;;;;;20.35;40.40;100794.89;1458602;88;21440;-87
2022/05/01 08:39:25;;;;;;;63.65;8.78;;;;;;;20.43;39.72;100790.67;1459537;87;21400;-86
2022/05/01 08:41:51;;;;;;;10.00;6.15;;;;;;;20.51;38.79;100791.31;1441170;89;21575;-85
2022/05/01 08:44:34;;;;;;;30.25;6.37;;;;;;;20.62;38.43;100782.34;1457739;87;21407;-86
2022/05/01 08:47:09;;;;;;;12.00;6.85;;;;;;;20.77;38.79;100782.15;1455804;88;21569;-86
2022/05/01 10:13:30;;;;;;;6.95;3.90;;;;;;;23.85;25.78;100717.94;1496637;85;25718;-84
2022/05/01 10:15:56;;;;;;;5.37;3.45;;;;;;;23.77;26.72;100718.25;1489308;87;21481;-84
2022/05/01 10:18:23;;;;;;;7.30;4.20;;;;;;;23.92;30.31;100720.54;1462025;87;21562;-83
2022/05/01 10:20:50;;;;;;;7.62;4.17;;;;;;;23.51;24.92;100716.67;1491007;87;21561;-84
2022/05/01 10:23:17;;;;;;;8.05;3.90;;;;;;;23.90;28.97;100720.47;1457675;88;21487;-83
2022/05/01 10:26:00;;;;;;;6.12;3.65;;;;;;;24.16;29.27;100711.98;1461859;88;21465;-84
2022/05/01 10:28:38;;;;;;;8.98;3.75;;;;;;;24.20;26.19;100713.19;1468117;88;21491;-83
2022/05/01 10:34:34;;;;;;;6.65;3.75;;;;;;;24.35;26.26;100707.87;1467192;88;21699;-85
2022/05/01 10:37:27;;;;;;;8.43;4.20;;;;;;;24.39;27.26;100703.64;1467624;87;21488;-85
2022/05/01 10:39:55;;;;;;;7.35;4.95;;;;;;;24.35;28.03;100697.05;1480968;87;22986;-84
2022/05/01 10:42:38;;;;;;;7.08;3.60;;;;;;;24.73;28.43;100698.83;1487218;86;21604;-84
2022/05/01 10:45:26;;;;;;;4.15;3.75;;;;;;;24.92;26.83;100698.73;1495328;87;22409;-84
2022/05/01 10:47:59;;;;;;;4.90;3.58;;;;;;;24.88;26.43;100686.70;1478329;87;21506;-84
2022/05/01 10:50:39;;;;;;;5.70;3.15;;;;;;;24.53;25.78;100690.22;1485945;88;21485;-84
2022/05/01 10:53:14;;;;;;;5.28;3.85;;;;;;;24.48;24.21;100692.27;1463672;88;21468;-84
2022/05/01 10:55:52;;;;;;;9.15;3.55;;;;;;;24.66;27.00;100684.59;1481078;88;21588;-85
2022/05/01 10:58:26;;;;;;;6.95;2.95;;;;;;;24.69;26.29;100685.48;1471167;88;21558;-85
2022/05/01 11:00:55;;;;;;;4.75;4.00;;;;;;;24.96;26.10;100675.52;1480592;88;21381;-84
2022/05/01 11:03:28;;;;;;;5.10;3.10;;;;;;;25.23;26.36;100668.27;1447126;88;21360;-84
2022/05/01 11:06:06;;;;;;;4.28;2.90;;;;;;;25.43;25.39;100671.40;1561950;88;23200;-85
2022/05/01 11:08:36;;;;;;;6.58;3.02;;;;;;;25.45;25.87;100669.28;1540835;88;21434;-86
2022/05/01 11:11:06;;;;;;;3.62;3.20;;;;;;;25.54;25.61;100671.08;1535448;87;21414;-84
2022/05/01 11:13:39;;;;;;;5.25;3.37;;;;;;;25.57;25.44;100675.48;1407611;87;21414;-84
2022/05/01 11:16:10;;;;;;;5.47;3.40;;;;;;;25.51;24.04;100660.19;1439104;89;21539;-85
2022/05/01 11:18:45;;;;;;;3.40;2.98;;;;;;;25.58;25.14;100659.53;1479613;87;22454;-84
2022/05/01 11:21:27;;;;;;;5.83;3.62;;;;;;;25.69;24.62;100656.46;1463445;87;21950;-84
2022/05/01 11:24:07;;;;;;;3.55;3.25;;;;;;;25.85;24.79;100654.91;1484124;87;22917;-84
2022/05/01 11:26:34;;;;;;;6.58;3.33;;;;;;;25.88;24.46;100657.13;1483120;88;21641;-85
2022/05/01 11:29:17;;;;;;;6.28;3.45;;;;;;;25.97;24.93;100655.66;1482106;88;22199;-85
2022/05/01 11:31:45;;;;;;;5.53;3.60;;;;;;;26.00;24.62;100657.06;1500282;89;21478;-84
2022/05/01 11:34:26;;;;;;;5.70;3.95;;;;;;;26.04;23.91;100660.41;1392625;89;21360;-84
2022/05/01 11:37:03;;;;;;;4.58;3.30;;;;;;;26.07;24.58;100655.03;1518965;88;21613;-84
2022/05/01 11:39:53;;;;;;;5.25;2.90;;;;;;;25.94;23.57;100649.37;1445569;88;21507;-84
2022/05/01 11:42:34;;;;;;;6.17;2.98;;;;;;;26.00;24.17;100648.39;1483232;87;21535;-81
2022/05/01 11:45:01;;;;;;;4.62;2.90;;;;;;;26.03;24.10;100646.55;1481929;88;22388;-81
2022/05/01 11:47:32;;;;;;;4.17;3.02;;;;;;;26.19;24.19;100646.83;1483573;88;21433;-81
2022/05/01 11:49:58;;;;;;;9.03;3.25;;;;;;;26.24;23.29;100644.17;1482255;88;21486;-83
2022/05/01 11:52:24;;;;;;;5.58;3.40;;;;;;;26.25;22.76;100637.16;1483311;88;22417;-83
2022/05/01 11:54:56;;;;;;;4.72;3.58;;;;;;;25.82;22.06;100629.09;1461502;88;21492;-83
2022/05/01 12:03:07;;;;;;;5.60;3.12;;;;;;;25.76;23.71;100625.16;1486850;88;21500;-83
2022/05/01 12:05:48;;;;;;;4.08;3.05;;;;;;;25.51;23.01;100624.14;1477019;88;21743;-82
2022/05/01 12:08:20;;;;;;;6.00;3.60;;;;;;;25.50;22.63;100614.38;1477239;88;22601;-83
2022/05/01 12:10:47;;;;;;;7.30;3.25;;;;;;;25.57;21.24;100611.80;1474786;87;21714;-84
2022/05/01 12:13:24;;;;;;;7.55;2.72;;;;;;;25.77;22.14;100618.66;1485213;88;21645;-83
2022/05/01 12:15:52;;;;;;;5.97;2.35;;;;;;;26.00;22.51;100614.49;1471826;88;22308;-80
2022/05/01 12:18:20;;;;;;;4.65;2.95;;;;;;;26.32;22.86;100605.78;1468878;88;21576;-81
2022/05/01 12:20:46;;;;;;;3.65;2.52;;;;;;;26.54;20.15;100611.31;1468225;88;21352;-81
2022/05/01 12:23:18;;;;;;;3.75;2.77;;;;;;;26.74;21.80;100605.36;1466592;88;21511;-81
2022/05/01 12:25:49;;;;;;;2.87;2.55;;;;;;;26.85;21.59;100603.06;1468911;88;21444;-79
2022/05/01 12:28:16;;;;;;;3.92;2.77;;;;;;;26.83;21.04;100603.84;1480935;88;21458;-83
2022/05/01 12:30:42;;;;;;;10.15;3.45;;;;;;;26.75;21.64;100605.09;1477085;88;21488;-83
2022/05/01 12:33:19;;;;;;;8.35;3.37;;;;;;;27.00;21.77;100595.11;1470973;88;21547;-83
2022/05/01 12:35:55;;;;;;;3.58;2.50;;;;;;;27.20;22.06;100595.92;1476508;88;21503;-83
2022/05/01 12:38:22;;;;;;;7.12;3.33;;;;;;;27.13;21.64;100592.56;1478129;88;21385;-83
2022/05/01 12:43:53;;;;;;;8.93;3.37;;;;;;;26.59;21.74;100583.44;1475018;88;21458;-82
2022/05/01 12:46:29;;;;;;;4.45;3.10;;;;;;;26.26;22.04;100585.08;1478955;88;21363;-83
2022/05/01 12:48:58;;;;;;;4.42;2.80;;;;;;;26.10;22.67;100582.67;1475002;88;21406;-83
2022/05/01 12:51:36;;;;;;;4.07;2.80;;;;;;;26.20;23.13;100573.32;1470897;88;21488;-83
2022/05/01 12:54:17;;;;;;;4.42;2.72;;;;;;;26.19;23.09;100569.52;1471017;88;21658;-83
2022/05/01 12:56:42;;;;;;;3.85;2.40;;;;;;;26.09;22.84;100564.73;1453944;90;21477;-83
2022/05/01 12:59:27;;;;;;;3.67;3.12;;;;;;;25.91;22.54;100567.70;1456760;89;22461;-85
2022/05/01 13:01:56;;;;;;;3.90;3.30;;;;;;;25.82;22.54;100562.69;1447613;89;21507;-83
2022/05/01 13:04:30;;;;;;;19.60;3.85;;;;;;;25.77;22.25;100557.13;1444270;90;21506;-83
2022/05/01 13:06:58;;;;;;;6.10;2.45;;;;;;;25.83;22.07;100552.66;1455627;89;21513;-83
2022/05/01 13:09:24;;;;;;;5.03;2.47;;;;;;;25.76;22.48;100551.97;1436723;90;21476;-83
2022/05/01 13:12:06;;;;;;;4.42;2.47;;;;;;;25.60;22.13;100546.27;1449770;90;21500;-83
2022/05/01 13:14:33;;;;;;;4.62;2.95;;;;;;;25.44;22.56;100545.73;1459405;89;22478;-83